sensor_id;sensor_type;location;lat;lon;timestamp;P1;durP1;ratioP1;P2;durP2;ratioP2
20559;SDS011;10438;51.454;6.718;2022-07-06T00:02:14;4.40;;;1.37;;
20559;SDS011;10438;51.454;6.718;2022-07-06T00:04:39;5.63;;;1.40;;
20559;SDS011;10438;51.454;6.718;2022-07-06T00:07:05;6.60;;;1.70;;
20559;SDS011;10438;51.454;6.718;2022-07-06T00:09:31;6.60;;;1.30;;
20559;SDS011;10438;51.454;6.718;2022-07-06T00:11:57;7.23;;;1.67;;
20559;SDS011;10438;51.454;6.718;2022-07-06T00:14:22;4.27;;;1.30;;
20559;SDS011;10438;51.454;6.718;2022-07-06T00:16:48;3.83;;;1.27;;
20559;SDS011;10438;51.454;6.718;2022-07-06T00:19:13;3.73;;;1.60;;
20559;SDS011;10438;51.454;6.718;2022-07-06T00:21:39;3.63;;;1.20;;
20559;SDS011;10438;51.454;6.718;2022-07-06T00:24:05;6.53;;;1.30;;
20559;SDS011;10438;51.454;6.718;2022-07-06T00:26:30;5.20;;;1.37;;
20559;SDS011;10438;51.454;6.718;2022-07-06T00:28:56;4.07;;;1.90;;
20559;SDS011;10438;51.454;6.718;2022-07-06T00:31:22;4.70;;;1.40;;
20559;SDS011;10438;51.454;6.718;2022-07-06T00:33:47;3.63;;;1.20;;
20559;SDS011;10438;51.454;6.718;2022-07-06T00:36:13;3.37;;;1.20;;
20559;SDS011;10438;51.454;6.718;2022-07-06T00:38:38;5.30;;;1.60;;
20559;SDS011;10438;51.454;6.718;2022-07-06T00:41:04;4.77;;;1.60;;
20559;SDS011;10438;51.454;6.718;2022-07-06T00:43:45;6.47;;;1.60;;
20559;SDS011;10438;51.454;6.718;2022-07-06T00:46:28;7.20;;;1.60;;
20559;SDS011;10438;51.454;6.718;2022-07-06T00:48:56;4.90;;;1.60;;
20559;SDS011;10438;51.454;6.718;2022-07-06T00:51:22;4.93;;;2.17;;
20559;SDS011;10438;51.454;6.718;2022-07-06T00:53:53;4.43;;;1.73;;
20559;SDS011;10438;51.454;6.718;2022-07-06T00:56:21;5.23;;;1.90;;
20559;SDS011;10438;51.454;6.718;2022-07-06T00:58:48;7.40;;;3.07;;
20559;SDS011;10438;51.454;6.718;2022-07-06T01:01:13;6.00;;;2.27;;
20559;SDS011;10438;51.454;6.718;2022-07-06T01:03:39;6.70;;;2.10;;
20559;SDS011;10438;51.454;6.718;2022-07-06T01:06:04;6.80;;;2.27;;
20559;SDS011;10438;51.454;6.718;2022-07-06T01:08:30;8.07;;;2.30;;
20559;SDS011;10438;51.454;6.718;2022-07-06T01:10:55;5.30;;;2.10;;
20559;SDS011;10438;51.454;6.718;2022-07-06T01:13:21;8.27;;;2.77;;
20559;SDS011;10438;51.454;6.718;2022-07-06T01:15:47;6.37;;;2.37;;
20559;SDS011;10438;51.454;6.718;2022-07-06T01:18:12;5.27;;;2.10;;
20559;SDS011;10438;51.454;6.718;2022-07-06T01:20:38;7.17;;;3.60;;
20559;SDS011;10438;51.454;6.718;2022-07-06T01:23:04;5.97;;;2.33;;
20559;SDS011;10438;51.454;6.718;2022-07-06T01:25:30;7.40;;;2.50;;
20559;SDS011;10438;51.454;6.718;2022-07-06T01:27:55;6.43;;;2.70;;
20559;SDS011;10438;51.454;6.718;2022-07-06T01:30:21;9.13;;;2.70;;
20559;SDS011;10438;51.454;6.718;2022-07-06T01:32:47;6.17;;;2.80;;
20559;SDS011;10438;51.454;6.718;2022-07-06T01:35:13;4.50;;;2.43;;
20559;SDS011;10438;51.454;6.718;2022-07-06T01:37:40;6.90;;;3.07;;
20559;SDS011;10438;51.454;6.718;2022-07-06T01:40:07;5.67;;;2.70;;
20559;SDS011;10438;51.454;6.718;2022-07-06T01:42:34;5.33;;;3.40;;
20559;SDS011;10438;51.454;6.718;2022-07-06T01:45:00;5.37;;;2.90;;
20559;SDS011;10438;51.454;6.718;2022-07-06T01:47:26;6.23;;;2.50;;
20559;SDS011;10438;51.454;6.718;2022-07-06T01:49:51;6.33;;;2.90;;
20559;SDS011;10438;51.454;6.718;2022-07-06T01:52:17;7.07;;;2.73;;
20559;SDS011;10438;51.454;6.718;2022-07-06T01:54:43;7.00;;;2.67;;
20559;SDS011;10438;51.454;6.718;2022-07-06T01:57:08;9.83;;;3.20;;
20559;SDS011;10438;51.454;6.718;2022-07-06T01:59:34;7.47;;;2.90;;
20559;SDS011;10438;51.454;6.718;2022-07-06T02:02:00;7.60;;;3.13;;
20559;SDS011;10438;51.454;6.718;2022-07-06T02:04:25;9.30;;;3.07;;
20559;SDS011;10438;51.454;6.718;2022-07-06T02:06:51;5.97;;;2.70;;
20559;SDS011;10438;51.454;6.718;2022-07-06T02:09:17;7.23;;;2.70;;
20559;SDS011;10438;51.454;6.718;2022-07-06T02:11:43;8.37;;;2.53;;
20559;SDS011;10438;51.454;6.718;2022-07-06T02:14:08;6.40;;;2.57;;
20559;SDS011;10438;51.454;6.718;2022-07-06T02:16:34;5.67;;;2.57;;
20559;SDS011;10438;51.454;6.718;2022-07-06T02:19:00;8.63;;;2.83;;
20559;SDS011;10438;51.454;6.718;2022-07-06T02:21:25;7.37;;;3.00;;
20559;SDS011;10438;51.454;6.718;2022-07-06T02:23:51;6.50;;;2.77;;
20559;SDS011;10438;51.454;6.718;2022-07-06T02:26:17;6.23;;;2.87;;
20559;SDS011;10438;51.454;6.718;2022-07-06T02:28:42;7.50;;;2.77;;
20559;SDS011;10438;51.454;6.718;2022-07-06T02:31:08;8.10;;;2.63;;
20559;SDS011;10438;51.454;6.718;2022-07-06T02:33:34;9.23;;;2.50;;
20559;SDS011;10438;51.454;6.718;2022-07-06T02:36:00;5.27;;;2.33;;
20559;SDS011;10438;51.454;6.718;2022-07-06T02:38:25;11.90;;;2.63;;
20559;SDS011;10438;51.454;6.718;2022-07-06T02:40:51;4.60;;;2.40;;
20559;SDS011;10438;51.454;6.718;2022-07-06T02:43:16;9.07;;;2.87;;
20559;SDS011;10438;51.454;6.718;2022-07-06T02:45:42;5.13;;;2.40;;
20559;SDS011;10438;51.454;6.718;2022-07-06T02:48:07;8.30;;;2.70;;
20559;SDS011;10438;51.454;6.718;2022-07-06T02:50:33;8.17;;;2.13;;
20559;SDS011;10438;51.454;6.718;2022-07-06T02:52:58;7.13;;;2.57;;
20559;SDS011;10438;51.454;6.718;2022-07-06T02:55:25;6.37;;;2.73;;
20559;SDS011;10438;51.454;6.718;2022-07-06T02:57:51;9.33;;;3.00;;
20559;SDS011;10438;51.454;6.718;2022-07-06T03:00:16;8.27;;;2.73;;
20559;SDS011;10438;51.454;6.718;2022-07-06T03:02:42;6.77;;;2.90;;
20559;SDS011;10438;51.454;6.718;2022-07-06T03:05:08;6.57;;;3.23;;
20559;SDS011;10438;51.454;6.718;2022-07-06T03:07:33;9.53;;;3.23;;
20559;SDS011;10438;51.454;6.718;2022-07-06T03:09:59;8.70;;;3.23;;
20559;SDS011;10438;51.454;6.718;2022-07-06T03:12:25;7.97;;;2.80;;
20559;SDS011;10438;51.454;6.718;2022-07-06T03:14:50;8.20;;;3.10;;
20559;SDS011;10438;51.454;6.718;2022-07-06T03:17:16;8.93;;;3.17;;
20559;SDS011;10438;51.454;6.718;2022-07-06T03:19:41;8.30;;;3.43;;
20559;SDS011;10438;51.454;6.718;2022-07-06T03:22:07;7.77;;;3.47;;
20559;SDS011;10438;51.454;6.718;2022-07-06T03:24:33;6.83;;;3.37;;
20559;SDS011;10438;51.454;6.718;2022-07-06T03:26:58;9.23;;;3.50;;
20559;SDS011;10438;51.454;6.718;2022-07-06T03:29:24;7.30;;;3.47;;
20559;SDS011;10438;51.454;6.718;2022-07-06T03:31:49;7.13;;;3.97;;
20559;SDS011;10438;51.454;6.718;2022-07-06T03:34:15;7.60;;;3.50;;
20559;SDS011;10438;51.454;6.718;2022-07-06T03:36:40;7.20;;;3.77;;
20559;SDS011;10438;51.454;6.718;2022-07-06T03:39:06;6.03;;;3.23;;
20559;SDS011;10438;51.454;6.718;2022-07-06T03:41:32;6.93;;;3.40;;
20559;SDS011;10438;51.454;6.718;2022-07-06T03:43:58;9.73;;;3.60;;
20559;SDS011;10438;51.454;6.718;2022-07-06T03:46:24;6.10;;;3.47;;
20559;SDS011;10438;51.454;6.718;2022-07-06T03:48:49;6.50;;;3.73;;
20559;SDS011;10438;51.454;6.718;2022-07-06T03:51:15;8.43;;;3.60;;
20559;SDS011;10438;51.454;6.718;2022-07-06T03:53:41;9.07;;;3.43;;
20559;SDS011;10438;51.454;6.718;2022-07-06T03:56:06;6.87;;;3.40;;
20559;SDS011;10438;51.454;6.718;2022-07-06T03:58:51;7.13;;;3.50;;
20559;SDS011;10438;51.454;6.718;2022-07-06T04:01:16;10.80;;;3.50;;
20559;SDS011;10438;51.454;6.718;2022-07-06T04:03:42;6.97;;;3.50;;
20559;SDS011;10438;51.454;6.718;2022-07-06T04:06:07;10.10;;;3.37;;
20559;SDS011;10438;51.454;6.718;2022-07-06T04:08:33;8.60;;;3.27;;
20559;SDS011;10438;51.454;6.718;2022-07-06T04:10:58;8.77;;;3.30;;
20559;SDS011;10438;51.454;6.718;2022-07-06T04:13:24;6.27;;;2.97;;
20559;SDS011;10438;51.454;6.718;2022-07-06T04:15:52;7.07;;;2.87;;
20559;SDS011;10438;51.454;6.718;2022-07-06T04:18:18;9.87;;;3.17;;
20559;SDS011;10438;51.454;6.718;2022-07-06T04:20:43;16.17;;;7.13;;
20559;SDS011;10438;51.454;6.718;2022-07-06T04:23:09;6.53;;;3.60;;
20559;SDS011;10438;51.454;6.718;2022-07-06T04:25:34;8.73;;;3.53;;
20559;SDS011;10438;51.454;6.718;2022-07-06T04:28:00;6.67;;;2.37;;
20559;SDS011;10438;51.454;6.718;2022-07-06T04:30:25;6.13;;;3.13;;
20559;SDS011;10438;51.454;6.718;2022-07-06T04:32:51;8.60;;;3.17;;
20559;SDS011;10438;51.454;6.718;2022-07-06T04:35:17;9.10;;;3.40;;
20559;SDS011;10438;51.454;6.718;2022-07-06T04:37:42;6.20;;;2.80;;
20559;SDS011;10438;51.454;6.718;2022-07-06T04:40:10;7.73;;;3.30;;
20559;SDS011;10438;51.454;6.718;2022-07-06T04:42:36;8.57;;;3.20;;
20559;SDS011;10438;51.454;6.718;2022-07-06T04:45:02;6.37;;;3.00;;
20559;SDS011;10438;51.454;6.718;2022-07-06T04:47:28;10.50;;;3.47;;
20559;SDS011;10438;51.454;6.718;2022-07-06T04:49:54;9.98;;;3.55;;
20559;SDS011;10438;51.454;6.718;2022-07-06T04:52:20;7.43;;;3.73;;
20559;SDS011;10438;51.454;6.718;2022-07-06T04:54:45;12.40;;;3.40;;
20559;SDS011;10438;51.454;6.718;2022-07-06T04:57:11;9.07;;;3.47;;
20559;SDS011;10438;51.454;6.718;2022-07-06T04:59:36;7.13;;;3.03;;
20559;SDS011;10438;51.454;6.718;2022-07-06T05:02:02;8.47;;;3.30;;
20559;SDS011;10438;51.454;6.718;2022-07-06T05:04:27;5.90;;;3.10;;
20559;SDS011;10438;51.454;6.718;2022-07-06T05:06:53;8.63;;;3.47;;
20559;SDS011;10438;51.454;6.718;2022-07-06T05:09:19;6.77;;;3.17;;
20559;SDS011;10438;51.454;6.718;2022-07-06T05:11:44;8.33;;;2.90;;
20559;SDS011;10438;51.454;6.718;2022-07-06T05:14:10;11.43;;;3.37;;
20559;SDS011;10438;51.454;6.718;2022-07-06T05:16:35;7.17;;;3.07;;
20559;SDS011;10438;51.454;6.718;2022-07-06T05:19:01;6.83;;;2.90;;
20559;SDS011;10438;51.454;6.718;2022-07-06T05:21:26;7.43;;;3.10;;
20559;SDS011;10438;51.454;6.718;2022-07-06T05:23:52;8.70;;;3.73;;
20559;SDS011;10438;51.454;6.718;2022-07-06T05:26:18;6.10;;;2.77;;
20559;SDS011;10438;51.454;6.718;2022-07-06T05:28:43;7.00;;;2.80;;
20559;SDS011;10438;51.454;6.718;2022-07-06T05:31:09;5.57;;;2.90;;
20559;SDS011;10438;51.454;6.718;2022-07-06T05:33:34;10.70;;;2.73;;
20559;SDS011;10438;51.454;6.718;2022-07-06T05:36:00;6.47;;;2.93;;
20559;SDS011;10438;51.454;6.718;2022-07-06T05:38:25;8.87;;;3.00;;
20559;SDS011;10438;51.454;6.718;2022-07-06T05:40:51;6.43;;;2.77;;
20559;SDS011;10438;51.454;6.718;2022-07-06T05:43:17;8.80;;;3.53;;
20559;SDS011;10438;51.454;6.718;2022-07-06T05:45:43;7.63;;;2.70;;
20559;SDS011;10438;51.454;6.718;2022-07-06T05:48:08;9.83;;;3.20;;
20559;SDS011;10438;51.454;6.718;2022-07-06T05:50:52;8.03;;;2.73;;
20559;SDS011;10438;51.454;6.718;2022-07-06T05:53:18;9.67;;;2.70;;
20559;SDS011;10438;51.454;6.718;2022-07-06T05:55:44;12.03;;;2.97;;
20559;SDS011;10438;51.454;6.718;2022-07-06T05:58:10;7.70;;;2.50;;
20559;SDS011;10438;51.454;6.718;2022-07-06T06:00:36;8.33;;;2.97;;
20559;SDS011;10438;51.454;6.718;2022-07-06T06:03:02;6.67;;;2.67;;
20559;SDS011;10438;51.454;6.718;2022-07-06T06:05:27;12.73;;;2.90;;
20559;SDS011;10438;51.454;6.718;2022-07-06T06:07:53;9.37;;;2.70;;
20559;SDS011;10438;51.454;6.718;2022-07-06T06:10:19;5.57;;;2.07;;
20559;SDS011;10438;51.454;6.718;2022-07-06T06:12:46;8.00;;;2.10;;
20559;SDS011;10438;51.454;6.718;2022-07-06T06:15:12;7.13;;;2.10;;
20559;SDS011;10438;51.454;6.718;2022-07-06T06:17:38;6.83;;;1.90;;
20559;SDS011;10438;51.454;6.718;2022-07-06T06:20:05;6.03;;;1.97;;
20559;SDS011;10438;51.454;6.718;2022-07-06T06:22:38;5.93;;;1.75;;
20559;SDS011;10438;51.454;6.718;2022-07-06T06:25:19;4.93;;;1.70;;
20559;SDS011;10438;51.454;6.718;2022-07-06T06:27:46;5.60;;;1.92;;
20559;SDS011;10438;51.454;6.718;2022-07-06T06:30:12;4.73;;;1.87;;
20559;SDS011;10438;51.454;6.718;2022-07-06T06:32:38;10.23;;;1.77;;
20559;SDS011;10438;51.454;6.718;2022-07-06T06:35:04;5.47;;;1.52;;
20559;SDS011;10438;51.454;6.718;2022-07-06T06:37:31;8.35;;;1.83;;
20559;SDS011;10438;51.454;6.718;2022-07-06T06:39:57;9.50;;;1.50;;
20559;SDS011;10438;51.454;6.718;2022-07-06T06:42:23;7.45;;;1.48;;
20559;SDS011;10438;51.454;6.718;2022-07-06T06:44:48;7.32;;;1.50;;
20559;SDS011;10438;51.454;6.718;2022-07-06T06:47:14;6.95;;;1.88;;
20559;SDS011;10438;51.454;6.718;2022-07-06T06:49:39;6.70;;;1.55;;
20559;SDS011;10438;51.454;6.718;2022-07-06T06:52:05;8.25;;;1.17;;
20559;SDS011;10438;51.454;6.718;2022-07-06T06:54:30;4.93;;;1.40;;
20559;SDS011;10438;51.454;6.718;2022-07-06T06:56:56;6.47;;;1.38;;
20559;SDS011;10438;51.454;6.718;2022-07-06T06:59:22;6.00;;;0.98;;
20559;SDS011;10438;51.454;6.718;2022-07-06T07:01:48;6.07;;;1.40;;
20559;SDS011;10438;51.454;6.718;2022-07-06T07:04:14;3.83;;;0.98;;
20559;SDS011;10438;51.454;6.718;2022-07-06T07:06:40;5.05;;;1.23;;
20559;SDS011;10438;51.454;6.718;2022-07-06T07:09:05;7.47;;;1.10;;
20559;SDS011;10438;51.454;6.718;2022-07-06T07:11:31;7.53;;;1.55;;
20559;SDS011;10438;51.454;6.718;2022-07-06T07:13:57;4.20;;;1.15;;
20559;SDS011;10438;51.454;6.718;2022-07-06T07:16:22;11.82;;;1.52;;
20559;SDS011;10438;51.454;6.718;2022-07-06T07:18:49;7.70;;;1.10;;
20559;SDS011;10438;51.454;6.718;2022-07-06T07:21:15;9.27;;;0.90;;
20559;SDS011;10438;51.454;6.718;2022-07-06T07:23:41;7.47;;;1.23;;
20559;SDS011;10438;51.454;6.718;2022-07-06T07:26:06;5.05;;;0.90;;
20559;SDS011;10438;51.454;6.718;2022-07-06T07:28:32;6.28;;;0.80;;
20559;SDS011;10438;51.454;6.718;2022-07-06T07:30:57;3.15;;;0.95;;
20559;SDS011;10438;51.454;6.718;2022-07-06T07:33:23;4.82;;;1.00;;
20559;SDS011;10438;51.454;6.718;2022-07-06T07:35:48;5.50;;;1.05;;
20559;SDS011;10438;51.454;6.718;2022-07-06T07:38:14;6.80;;;1.15;;
20559;SDS011;10438;51.454;6.718;2022-07-06T07:40:39;5.75;;;1.33;;
20559;SDS011;10438;51.454;6.718;2022-07-06T07:43:05;6.65;;;1.05;;
20559;SDS011;10438;51.454;6.718;2022-07-06T07:45:31;5.75;;;1.00;;
20559;SDS011;10438;51.454;6.718;2022-07-06T07:47:56;4.60;;;0.98;;
20559;SDS011;10438;51.454;6.718;2022-07-06T07:50:22;3.22;;;0.80;;
20559;SDS011;10438;51.454;6.718;2022-07-06T07:52:47;3.08;;;0.93;;
20559;SDS011;10438;51.454;6.718;2022-07-06T07:55:13;3.28;;;0.70;;
20559;SDS011;10438;51.454;6.718;2022-07-06T07:57:38;10.80;;;0.90;;
20559;SDS011;10438;51.454;6.718;2022-07-06T08:00:06;9.52;;;1.10;;
20559;SDS011;10438;51.454;6.718;2022-07-06T08:02:32;9.13;;;1.20;;
20559;SDS011;10438;51.454;6.718;2022-07-06T08:04:58;3.33;;;0.90;;
20559;SDS011;10438;51.454;6.718;2022-07-06T08:07:23;3.72;;;0.80;;
20559;SDS011;10438;51.454;6.718;2022-07-06T08:09:49;2.50;;;0.90;;
20559;SDS011;10438;51.454;6.718;2022-07-06T08:12:14;4.38;;;0.93;;
20559;SDS011;10438;51.454;6.718;2022-07-06T08:14:40;3.58;;;0.80;;
20559;SDS011;10438;51.454;6.718;2022-07-06T08:17:06;2.65;;;0.60;;
20559;SDS011;10438;51.454;6.718;2022-07-06T08:19:31;5.55;;;0.80;;
20559;SDS011;10438;51.454;6.718;2022-07-06T08:21:57;5.78;;;0.90;;
20559;SDS011;10438;51.454;6.718;2022-07-06T08:24:22;3.33;;;0.77;;
20559;SDS011;10438;51.454;6.718;2022-07-06T08:26:48;6.05;;;0.90;;
20559;SDS011;10438;51.454;6.718;2022-07-06T08:29:14;5.43;;;0.90;;
20559;SDS011;10438;51.454;6.718;2022-07-06T08:31:40;4.15;;;0.80;;
20559;SDS011;10438;51.454;6.718;2022-07-06T08:34:05;2.92;;;0.60;;
20559;SDS011;10438;51.454;6.718;2022-07-06T08:36:31;3.88;;;0.95;;
20559;SDS011;10438;51.454;6.718;2022-07-06T08:38:57;2.50;;;0.50;;
20559;SDS011;10438;51.454;6.718;2022-07-06T08:41:23;2.97;;;0.80;;
20559;SDS011;10438;51.454;6.718;2022-07-06T08:43:51;7.65;;;1.38;;
20559;SDS011;10438;51.454;6.718;2022-07-06T08:46:18;2.90;;;0.80;;
20559;SDS011;10438;51.454;6.718;2022-07-06T08:48:44;4.28;;;0.73;;
20559;SDS011;10438;51.454;6.718;2022-07-06T08:51:11;3.85;;;0.70;;
20559;SDS011;10438;51.454;6.718;2022-07-06T08:53:39;3.65;;;0.70;;
20559;SDS011;10438;51.454;6.718;2022-07-06T08:56:06;5.13;;;0.85;;
20559;SDS011;10438;51.454;6.718;2022-07-06T08:58:32;5.85;;;0.80;;
20559;SDS011;10438;51.454;6.718;2022-07-06T09:00:58;8.38;;;0.90;;
20559;SDS011;10438;51.454;6.718;2022-07-06T09:03:24;2.55;;;0.50;;
20559;SDS011;10438;51.454;6.718;2022-07-06T09:05:50;2.58;;;0.60;;
20559;SDS011;10438;51.454;6.718;2022-07-06T09:08:17;2.47;;;0.43;;
20559;SDS011;10438;51.454;6.718;2022-07-06T09:10:44;3.85;;;0.70;;
20559;SDS011;10438;51.454;6.718;2022-07-06T09:13:09;2.90;;;0.60;;
20559;SDS011;10438;51.454;6.718;2022-07-06T09:15:36;8.25;;;0.88;;
20559;SDS011;10438;51.454;6.718;2022-07-06T09:18:05;5.63;;;0.60;;
20559;SDS011;10438;51.454;6.718;2022-07-06T09:20:33;3.33;;;0.70;;
20559;SDS011;10438;51.454;6.718;2022-07-06T09:22:59;5.30;;;0.70;;
20559;SDS011;10438;51.454;6.718;2022-07-06T09:25:25;2.85;;;0.85;;
20559;SDS011;10438;51.454;6.718;2022-07-06T09:27:52;2.75;;;0.90;;
20559;SDS011;10438;51.454;6.718;2022-07-06T09:30:19;5.15;;;0.80;;
20559;SDS011;10438;51.454;6.718;2022-07-06T09:32:47;3.72;;;0.70;;
20559;SDS011;10438;51.454;6.718;2022-07-06T09:35:30;2.22;;;0.43;;
20559;SDS011;10438;51.454;6.718;2022-07-06T09:38:02;6.03;;;0.80;;
20559;SDS011;10438;51.454;6.718;2022-07-06T09:40:35;7.60;;;1.27;;
20559;SDS011;10438;51.454;6.718;2022-07-06T09:43:18;2.70;;;0.60;;
20559;SDS011;10438;51.454;6.718;2022-07-06T09:45:53;2.75;;;0.63;;
20559;SDS011;10438;51.454;6.718;2022-07-06T09:48:24;4.05;;;0.52;;
20559;SDS011;10438;51.454;6.718;2022-07-06T09:50:51;2.40;;;0.50;;
20559;SDS011;10438;51.454;6.718;2022-07-06T09:53:18;5.43;;;0.60;;
20559;SDS011;10438;51.454;6.718;2022-07-06T09:55:49;3.10;;;0.68;;
20559;SDS011;10438;51.454;6.718;2022-07-06T09:58:16;2.00;;;0.52;;
20559;SDS011;10438;51.454;6.718;2022-07-06T10:00:42;3.95;;;0.70;;
20559;SDS011;10438;51.454;6.718;2022-07-06T10:03:09;5.03;;;0.90;;
20559;SDS011;10438;51.454;6.718;2022-07-06T10:05:40;2.50;;;0.60;;
20559;SDS011;10438;51.454;6.718;2022-07-06T10:08:07;3.08;;;0.70;;
20559;SDS011;10438;51.454;6.718;2022-07-06T10:10:37;2.03;;;0.70;;
20559;SDS011;10438;51.454;6.718;2022-07-06T10:13:05;3.70;;;0.55;;
20559;SDS011;10438;51.454;6.718;2022-07-06T10:15:31;7.18;;;0.85;;
20559;SDS011;10438;51.454;6.718;2022-07-06T10:17:57;6.78;;;0.80;;
20559;SDS011;10438;51.454;6.718;2022-07-06T10:20:23;5.30;;;0.70;;
20559;SDS011;10438;51.454;6.718;2022-07-06T10:22:53;1.98;;;0.57;;
20559;SDS011;10438;51.454;6.718;2022-07-06T10:25:22;5.00;;;0.60;;
20559;SDS011;10438;51.454;6.718;2022-07-06T10:27:49;3.55;;;1.13;;
20559;SDS011;10438;51.454;6.718;2022-07-06T10:30:16;3.75;;;0.60;;
20559;SDS011;10438;51.454;6.718;2022-07-06T10:32:43;5.00;;;0.50;;
20559;SDS011;10438;51.454;6.718;2022-07-06T10:35:10;2.33;;;0.57;;
20559;SDS011;10438;51.454;6.718;2022-07-06T10:37:37;3.50;;;0.70;;
20559;SDS011;10438;51.454;6.718;2022-07-06T10:40:03;2.85;;;0.70;;
20559;SDS011;10438;51.454;6.718;2022-07-06T10:42:49;4.03;;;0.60;;
20559;SDS011;10438;51.454;6.718;2022-07-06T10:46:08;4.47;;;0.60;;
20559;SDS011;10438;51.454;6.718;2022-07-06T10:50:40;4.15;;;0.50;;
20559;SDS011;10438;51.454;6.718;2022-07-06T10:53:17;4.55;;;0.80;;
20559;SDS011;10438;51.454;6.718;2022-07-06T10:55:48;2.40;;;0.47;;
20559;SDS011;10438;51.454;6.718;2022-07-06T10:58:35;7.63;;;1.00;;
20559;SDS011;10438;51.454;6.718;2022-07-06T11:01:09;3.63;;;0.80;;
20559;SDS011;10438;51.454;6.718;2022-07-06T11:03:43;2.80;;;0.63;;
20559;SDS011;10438;51.454;6.718;2022-07-06T11:06:31;3.58;;;0.60;;
20559;SDS011;10438;51.454;6.718;2022-07-06T11:09:03;3.05;;;0.80;;
20559;SDS011;10438;51.454;6.718;2022-07-06T11:16:36;1.48;;;0.50;;
20559;SDS011;10438;51.454;6.718;2022-07-06T11:19:23;1.88;;;0.60;;
20559;SDS011;10438;51.454;6.718;2022-07-06T11:21:52;2.13;;;0.70;;
20559;SDS011;10438;51.454;6.718;2022-07-06T11:24:23;3.55;;;0.90;;
20559;SDS011;10438;51.454;6.718;2022-07-06T11:26:51;3.75;;;0.88;;
20559;SDS011;10438;51.454;6.718;2022-07-06T11:29:18;3.83;;;0.88;;
20559;SDS011;10438;51.454;6.718;2022-07-06T11:31:48;1.92;;;0.55;;
20559;SDS011;10438;51.454;6.718;2022-07-06T11:34:19;2.42;;;0.70;;
20559;SDS011;10438;51.454;6.718;2022-07-06T11:36:56;3.85;;;1.00;;
20559;SDS011;10438;51.454;6.718;2022-07-06T11:39:22;3.35;;;0.70;;
20559;SDS011;10438;51.454;6.718;2022-07-06T11:41:50;12.55;;;0.68;;
20559;SDS011;10438;51.454;6.718;2022-07-06T11:44:16;6.25;;;0.60;;
20559;SDS011;10438;51.454;6.718;2022-07-06T11:46:42;3.25;;;0.50;;
20559;SDS011;10438;51.454;6.718;2022-07-06T11:49:08;5.18;;;1.15;;
20559;SDS011;10438;51.454;6.718;2022-07-06T11:51:34;2.30;;;0.50;;
20559;SDS011;10438;51.454;6.718;2022-07-06T11:54:06;2.42;;;0.60;;
20559;SDS011;10438;51.454;6.718;2022-07-06T11:56:34;5.75;;;1.17;;
20559;SDS011;10438;51.454;6.718;2022-07-06T11:59:00;2.28;;;0.68;;
20559;SDS011;10438;51.454;6.718;2022-07-06T12:01:29;3.90;;;0.70;;
20559;SDS011;10438;51.454;6.718;2022-07-06T12:03:59;2.80;;;0.60;;
20559;SDS011;10438;51.454;6.718;2022-07-06T12:06:28;4.15;;;0.73;;
20559;SDS011;10438;51.454;6.718;2022-07-06T12:08:58;2.10;;;0.50;;
20559;SDS011;10438;51.454;6.718;2022-07-06T12:11:26;7.60;;;1.38;;
20559;SDS011;10438;51.454;6.718;2022-07-06T12:13:57;4.00;;;0.50;;
20559;SDS011;10438;51.454;6.718;2022-07-06T12:16:32;4.55;;;0.70;;
20559;SDS011;10438;51.454;6.718;2022-07-06T12:19:01;4.28;;;0.55;;
20559;SDS011;10438;51.454;6.718;2022-07-06T12:21:28;5.10;;;0.82;;
20559;SDS011;10438;51.454;6.718;2022-07-06T12:23:54;4.90;;;0.70;;
20559;SDS011;10438;51.454;6.718;2022-07-06T12:26:21;3.47;;;0.80;;
20559;SDS011;10438;51.454;6.718;2022-07-06T12:29:00;2.25;;;0.60;;
20559;SDS011;10438;51.454;6.718;2022-07-06T12:32:13;4.07;;;0.70;;
20559;SDS011;10438;51.454;6.718;2022-07-06T12:34:30;2.03;;;0.50;;
20559;SDS011;10438;51.454;6.718;2022-07-06T12:36:57;2.50;;;1.00;;
20559;SDS011;10438;51.454;6.718;2022-07-06T12:39:27;9.50;;;0.90;;
20559;SDS011;10438;51.454;6.718;2022-07-06T12:42:00;3.22;;;0.73;;
20559;SDS011;10438;51.454;6.718;2022-07-06T12:44:28;3.30;;;0.90;;
20559;SDS011;10438;51.454;6.718;2022-07-06T12:47:07;6.53;;;0.90;;
20559;SDS011;10438;51.454;6.718;2022-07-06T12:49:34;4.35;;;0.65;;
20559;SDS011;10438;51.454;6.718;2022-07-06T12:52:02;3.13;;;0.70;;
20559;SDS011;10438;51.454;6.718;2022-07-06T12:54:35;4.43;;;0.73;;
20559;SDS011;10438;51.454;6.718;2022-07-06T12:57:14;4.25;;;0.70;;
20559;SDS011;10438;51.454;6.718;2022-07-06T12:59:42;2.88;;;0.70;;
20559;SDS011;10438;51.454;6.718;2022-07-06T13:02:17;2.90;;;0.70;;
20559;SDS011;10438;51.454;6.718;2022-07-06T13:05:02;3.00;;;0.60;;
20559;SDS011;10438;51.454;6.718;2022-07-06T13:07:30;7.22;;;0.95;;
20559;SDS011;10438;51.454;6.718;2022-07-06T13:10:00;2.58;;;0.63;;
20559;SDS011;10438;51.454;6.718;2022-07-06T13:12:28;3.70;;;0.82;;
20559;SDS011;10438;51.454;6.718;2022-07-06T13:14:54;2.38;;;0.70;;
20559;SDS011;10438;51.454;6.718;2022-07-06T13:17:19;3.03;;;0.80;;
20559;SDS011;10438;51.454;6.718;2022-07-06T13:19:45;3.63;;;0.85;;
20559;SDS011;10438;51.454;6.718;2022-07-06T13:22:11;3.03;;;0.85;;
20559;SDS011;10438;51.454;6.718;2022-07-06T13:24:36;2.63;;;0.50;;
20559;SDS011;10438;51.454;6.718;2022-07-06T13:27:02;3.35;;;0.77;;
20559;SDS011;10438;51.454;6.718;2022-07-06T13:29:28;3.75;;;0.70;;
20559;SDS011;10438;51.454;6.718;2022-07-06T13:31:53;5.35;;;0.77;;
20559;SDS011;10438;51.454;6.718;2022-07-06T13:34:19;3.58;;;0.98;;
20559;SDS011;10438;51.454;6.718;2022-07-06T13:36:45;2.03;;;0.60;;
20559;SDS011;10438;51.454;6.718;2022-07-06T13:39:11;2.78;;;0.70;;
20559;SDS011;10438;51.454;6.718;2022-07-06T13:41:37;4.00;;;0.80;;
20559;SDS011;10438;51.454;6.718;2022-07-06T13:44:02;1.90;;;0.55;;
20559;SDS011;10438;51.454;6.718;2022-07-06T13:46:29;3.97;;;1.27;;
20559;SDS011;10438;51.454;6.718;2022-07-06T13:48:55;10.30;;;4.20;;
20559;SDS011;10438;51.454;6.718;2022-07-06T13:51:22;5.10;;;1.25;;
20559;SDS011;10438;51.454;6.718;2022-07-06T13:53:49;2.08;;;0.50;;
20559;SDS011;10438;51.454;6.718;2022-07-06T13:56:15;3.05;;;0.80;;
20559;SDS011;10438;51.454;6.718;2022-07-06T13:58:41;5.38;;;1.00;;
20559;SDS011;10438;51.454;6.718;2022-07-06T14:01:06;2.65;;;0.75;;
20559;SDS011;10438;51.454;6.718;2022-07-06T14:03:32;4.60;;;0.77;;
20559;SDS011;10438;51.454;6.718;2022-07-06T14:05:58;3.17;;;0.75;;
20559;SDS011;10438;51.454;6.718;2022-07-06T14:08:26;2.25;;;0.60;;
20559;SDS011;10438;51.454;6.718;2022-07-06T14:10:52;2.10;;;0.70;;
20559;SDS011;10438;51.454;6.718;2022-07-06T14:13:19;6.38;;;0.63;;
20559;SDS011;10438;51.454;6.718;2022-07-06T14:15:45;2.58;;;0.60;;
20559;SDS011;10438;51.454;6.718;2022-07-06T14:18:11;3.60;;;0.70;;
20559;SDS011;10438;51.454;6.718;2022-07-06T14:20:37;2.33;;;0.50;;
20559;SDS011;10438;51.454;6.718;2022-07-06T14:23:02;1.73;;;0.68;;
20559;SDS011;10438;51.454;6.718;2022-07-06T14:25:28;3.53;;;0.60;;
20559;SDS011;10438;51.454;6.718;2022-07-06T14:27:53;3.50;;;0.80;;
20559;SDS011;10438;51.454;6.718;2022-07-06T14:30:19;2.42;;;0.75;;
20559;SDS011;10438;51.454;6.718;2022-07-06T14:32:45;3.38;;;0.77;;
20559;SDS011;10438;51.454;6.718;2022-07-06T14:35:11;4.70;;;1.50;;
20559;SDS011;10438;51.454;6.718;2022-07-06T14:37:37;5.57;;;0.80;;
20559;SDS011;10438;51.454;6.718;2022-07-06T14:40:03;2.97;;;0.73;;
20559;SDS011;10438;51.454;6.718;2022-07-06T14:42:29;2.25;;;0.75;;
20559;SDS011;10438;51.454;6.718;2022-07-06T14:44:55;4.38;;;0.80;;
20559;SDS011;10438;51.454;6.718;2022-07-06T14:47:20;5.25;;;0.95;;
20559;SDS011;10438;51.454;6.718;2022-07-06T14:49:46;3.28;;;0.90;;
20559;SDS011;10438;51.454;6.718;2022-07-06T14:52:11;5.97;;;0.77;;
20559;SDS011;10438;51.454;6.718;2022-07-06T14:54:37;4.53;;;0.77;;
20559;SDS011;10438;51.454;6.718;2022-07-06T14:57:03;2.03;;;0.63;;